createdAt,value
2023-04-23T00:01:20.494Z,100150.28
2023-04-23T00:03:50.164Z,100140.53
2023-04-23T00:06:17.844Z,100137.16
2023-04-23T00:08:45.154Z,100145.06
2023-04-23T00:11:12.511Z,100138.00
2023-04-23T00:13:39.842Z,100137.16
2023-04-23T00:16:07.526Z,100126.41
2023-04-23T00:18:34.779Z,100127.25
2023-04-23T00:21:01.966Z,100126.41
2023-04-23T00:23:29.271Z,100124.56
2023-04-23T00:25:56.669Z,100118.53
2023-04-23T00:28:23.841Z,100120.38
2023-04-23T00:30:51.152Z,100116.28
2023-04-23T00:33:18.356Z,100120.38
2023-04-23T00:35:45.683Z,100121.34
2023-04-23T00:38:12.899Z,100115.97
2023-04-23T00:40:40.345Z,100117.69
2023-04-23T00:43:08.221Z,100118.81
2023-04-23T00:45:35.654Z,100119.38
2023-04-23T00:48:03.910Z,100123.06
2023-04-23T00:50:31.098Z,100119.66
2023-04-23T00:52:58.290Z,100113.47
2023-04-23T00:55:25.600Z,100119.66
2023-04-23T00:57:54.093Z,100111.44
2023-04-23T01:00:21.387Z,100109.78
2023-04-23T01:02:50.544Z,100111.78
2023-04-23T01:05:18.325Z,100108.09
2023-04-23T01:07:45.878Z,100113.47
2023-04-23T01:10:13.461Z,100107.25
2023-04-23T01:12:40.838Z,100109.94
2023-04-23T01:15:09.002Z,100106.41
2023-04-23T01:17:37.101Z,100108.38
2023-04-23T01:20:06.501Z,100110.91
2023-04-23T01:22:36.683Z,100110.91
2023-04-23T01:25:04.584Z,100101.16
2023-04-23T01:27:32.016Z,100103.84
2023-04-23T01:29:59.548Z,100116.56
2023-04-23T01:32:26.858Z,100106.69
2023-04-23T01:34:55.463Z,100101.47
2023-04-23T01:37:23.445Z,100099.63
2023-04-23T01:39:51.132Z,100100.63
2023-04-23T01:42:18.380Z,100090.72
2023-04-23T01:44:45.568Z,100096.25
2023-04-23T01:47:12.791Z,100089.19
2023-04-23T01:49:40.023Z,100092.03
2023-04-23T01:52:07.185Z,100090.34
2023-04-23T01:54:34.347Z,100092.31
2023-04-23T01:57:01.572Z,100089.63
2023-04-23T01:59:28.796Z,100094.84
2023-04-23T02:01:56.077Z,100088.63
2023-04-23T02:04:23.546Z,100092.31
2023-04-23T02:06:51.916Z,100086.94
2023-04-23T02:09:19.146Z,100090.34
2023-04-23T02:11:46.358Z,100087.94
2023-04-23T02:14:14.094Z,100089.63
2023-04-23T02:16:41.272Z,100090.47
2023-04-23T02:19:08.506Z,100093.44
2023-04-23T02:21:35.667Z,100090.75
2023-04-23T02:24:02.893Z,100093.31
2023-04-23T02:26:30.100Z,100087.25
2023-04-23T02:28:57.271Z,100089.91
2023-04-23T02:31:24.521Z,100090.06
2023-04-23T02:33:52.083Z,100095.28
2023-04-23T02:36:19.262Z,100095.41
2023-04-23T02:38:48.549Z,100090.91
2023-04-23T02:41:15.927Z,100098.25
2023-04-23T02:43:43.133Z,100100.09
2023-04-23T02:46:10.696Z,100094.56
2023-04-23T02:48:41.707Z,100095.56
2023-04-23T02:51:10.915Z,100085.69
2023-04-23T02:53:38.117Z,100085.84
2023-04-23T02:56:05.471Z,100082.16
2023-04-23T02:58:32.694Z,100084.00
2023-04-23T03:01:00.703Z,100079.59
2023-04-23T03:03:31.837Z,100082.28
2023-04-23T03:06:00.375Z,100084.13
2023-04-23T03:08:27.997Z,100079.06
2023-04-23T03:10:55.159Z,100080.78
2023-04-23T03:13:22.338Z,100075.41
2023-04-23T03:15:50.017Z,100072.72
2023-04-23T03:18:17.203Z,100078.22
2023-04-23T03:20:44.438Z,100074.69
2023-04-23T03:23:11.618Z,100068.34
2023-04-23T03:25:38.874Z,100074.69
2023-04-23T03:28:06.089Z,100071.19
2023-04-23T03:30:33.735Z,100068.34
2023-04-23T03:33:02.407Z,100068.63
2023-04-23T03:35:29.667Z,100077.38
2023-04-23T03:37:56.839Z,100069.50
2023-04-23T03:40:24.073Z,100065.94
2023-04-23T03:42:51.398Z,100062.41
2023-04-23T03:45:18.555Z,100071.31
2023-04-23T03:47:46.077Z,100072.31
2023-04-23T03:50:13.492Z,100064.25
2023-04-23T03:52:41.076Z,100068.78
2023-04-23T03:55:08.965Z,100056.22
2023-04-23T03:57:36.836Z,100061.56
2023-04-23T04:00:08.193Z,100065.25
2023-04-23T04:02:35.982Z,100063.53
2023-04-23T04:05:03.421Z,100071.31
2023-04-23T04:07:31.119Z,100066.22
2023-04-23T04:09:58.265Z,100067.94
2023-04-23T04:12:25.748Z,100063.53
2023-04-23T04:14:52.880Z,100063.53
2023-04-23T04:17:20.084Z,100061.88
2023-04-23T04:19:47.388Z,100060.88
2023-04-23T04:22:14.698Z,100059.34
2023-04-23T04:24:42.527Z,100069.91
2023-04-23T04:27:09.965Z,100066.56
2023-04-23T04:29:37.151Z,100070.91
2023-04-23T04:32:05.222Z,100069.06
2023-04-23T04:34:33.026Z,100076.28
2023-04-23T04:37:00.795Z,100078.13
2023-04-23T04:39:28.004Z,100072.59
2023-04-23T04:41:55.363Z,100075.44
2023-04-23T04:44:22.978Z,100077.13
2023-04-23T04:46:50.168Z,100074.28
2023-04-23T04:49:19.497Z,100078.97
2023-04-23T04:51:46.698Z,100062.88
2023-04-23T04:54:13.922Z,100067.22
2023-04-23T04:56:41.198Z,100062.03
2023-04-23T04:59:08.371Z,100076.28
2023-04-23T05:01:36.105Z,100073.59
2023-04-23T05:04:04.001Z,100085.16
2023-04-23T05:06:32.420Z,100085.31
2023-04-23T05:08:59.651Z,100091.53
2023-04-23T05:11:26.916Z,100087.84
2023-04-23T05:13:54.082Z,100084.16
2023-04-23T05:16:21.681Z,100078.97
2023-04-23T05:18:48.862Z,100084.31
2023-04-23T05:21:16.359Z,100077.97
2023-04-23T05:23:43.529Z,100077.13
2023-04-23T05:26:11.268Z,100087.00
2023-04-23T05:28:38.467Z,100080.81
2023-04-23T05:31:05.795Z,100087.13
2023-04-23T05:33:39.235Z,100087.00
2023-04-23T05:36:10.003Z,100091.38
2023-04-23T05:38:38.087Z,100087.84
2023-04-23T05:41:05.397Z,100092.38
2023-04-23T05:43:32.576Z,100094.88
2023-04-23T05:45:59.935Z,100095.72
2023-04-23T05:48:27.184Z,100101.97
2023-04-23T05:50:54.399Z,100097.72
2023-04-23T05:53:21.652Z,100097.72
2023-04-23T05:55:49.059Z,100098.56
2023-04-23T05:58:17.194Z,100099.28
2023-04-23T06:00:44.379Z,100100.13
2023-04-23T06:03:11.663Z,100099.13
2023-04-23T06:05:38.923Z,100102.81
2023-04-23T06:08:06.214Z,100108.84
2023-04-23T06:10:33.425Z,100099.97
2023-04-23T06:13:00.598Z,100103.50
2023-04-23T06:15:27.791Z,100102.81
2023-04-23T06:17:55.023Z,100102.53
2023-04-23T06:20:23.068Z,100108.00
2023-04-23T06:22:50.234Z,100112.41
2023-04-23T06:25:17.452Z,100108.84
2023-04-23T06:27:44.718Z,100117.78
2023-04-23T06:30:12.277Z,100124.09
2023-04-23T06:32:39.543Z,100124.25
2023-04-23T06:35:08.383Z,100118.91
2023-04-23T06:37:35.865Z,100117.19
2023-04-23T06:40:03.286Z,100121.72
2023-04-23T06:42:30.746Z,100126.09
2023-04-23T06:44:59.614Z,100120.88
2023-04-23T06:47:26.908Z,100123.56
2023-04-23T06:49:54.121Z,100121.59
2023-04-23T06:52:21.303Z,100121.72
2023-04-23T06:54:48.487Z,100126.22
2023-04-23T06:57:17.518Z,100124.41
2023-04-23T06:59:44.676Z,100125.22
2023-04-23T07:02:11.947Z,100123.44
2023-04-23T07:04:39.257Z,100125.22
2023-04-23T07:07:06.635Z,100118.06
2023-04-23T07:09:33.876Z,100119.88
2023-04-23T07:12:02.261Z,100115.38
2023-04-23T07:14:29.501Z,100119.88
2023-04-23T07:16:57.018Z,100117.19
2023-04-23T07:19:24.207Z,100125.94
2023-04-23T07:21:54.466Z,100124.25
2023-04-23T07:24:21.701Z,100121.59
2023-04-23T07:26:49.196Z,100129.63
2023-04-23T07:29:16.398Z,100121.59
2023-04-23T07:31:43.880Z,100132.44
2023-04-23T07:34:11.382Z,100136.97
2023-04-23T07:36:38.639Z,100131.47
2023-04-23T07:39:06.178Z,100141.19
2023-04-23T07:41:33.637Z,100130.59
2023-04-23T07:44:01.027Z,100137.81
2023-04-23T07:46:28.338Z,100134.28
2023-04-23T07:48:55.780Z,100129.91
2023-04-23T07:51:26.537Z,100131.59
2023-04-23T07:53:58.213Z,100130.59
2023-04-23T07:56:25.547Z,100136.69
2023-04-23T07:58:54.045Z,100135.00
2023-04-23T08:01:21.755Z,100139.50
2023-04-23T08:03:49.076Z,100135.84
2023-04-23T08:06:18.194Z,100135.84
2023-04-23T08:08:45.703Z,100139.34
2023-04-23T08:11:12.912Z,100143.72
2023-04-23T08:13:40.084Z,100137.50
2023-04-23T08:16:07.330Z,100141.91
2023-04-23T08:18:35.261Z,100142.75
2023-04-23T08:21:02.472Z,100146.28
2023-04-23T08:23:29.732Z,100138.34
2023-04-23T08:25:57.023Z,100146.28
2023-04-23T08:28:24.239Z,100150.50
2023-04-23T08:30:51.427Z,100140.75
2023-04-23T08:33:18.629Z,100140.06
2023-04-23T08:35:46.434Z,100143.44
2023-04-23T08:38:13.744Z,100148.97
2023-04-23T08:40:42.585Z,100152.47
2023-04-23T08:43:34.907Z,100157.13
2023-04-23T08:46:06.663Z,100154.59
2023-04-23T08:48:35.119Z,100157.13
2023-04-23T08:51:03.603Z,100167.84
2023-04-23T08:53:32.643Z,100166.06
2023-04-23T08:56:00.399Z,100168.72
2023-04-23T08:58:28.301Z,100170.69
2023-04-23T09:00:58.046Z,100163.38
2023-04-23T09:03:26.375Z,100174.78
2023-04-23T09:05:53.679Z,100173.38
2023-04-23T09:08:22.040Z,100184.66
2023-04-23T09:10:50.393Z,100184.94
2023-04-23T09:13:18.003Z,100184.94
2023-04-23T09:15:45.274Z,100195.56
2023-04-23T09:18:12.550Z,100201.03
2023-04-23T09:20:39.756Z,100200.03
2023-04-23T09:23:10.127Z,100202.72
2023-04-23T09:25:37.365Z,100208.97
2023-04-23T09:28:08.990Z,100206.41
2023-04-23T09:30:40.926Z,100209.81
2023-04-23T09:33:08.434Z,100203.72
2023-04-23T09:35:35.952Z,100209.81
2023-04-23T09:38:11.502Z,100202.88
2023-04-23T09:40:38.801Z,100204.44
2023-04-23T09:43:07.560Z,100207.25
2023-04-23T09:45:35.557Z,100210.78
2023-04-23T09:48:02.861Z,100208.97
2023-04-23T09:50:34.048Z,100213.47
2023-04-23T09:53:01.339Z,100221.50
2023-04-23T09:55:35.584Z,100218.81
2023-04-23T09:58:04.469Z,100218.81
2023-04-23T10:00:36.600Z,100223.50
2023-04-23T10:03:05.085Z,100226.75
2023-04-23T10:05:49.837Z,100210.38
2023-04-23T10:08:19.880Z,100214.59
2023-04-23T10:10:59.513Z,100210.22
2023-04-23T10:13:36.490Z,100211.94
2023-04-23T10:16:18.114Z,100213.59
2023-04-23T10:18:48.567Z,100223.34
2023-04-23T10:21:16.155Z,100218.97
2023-04-23T10:23:45.242Z,100218.25
2023-04-23T10:26:12.382Z,100222.50
2023-04-23T10:28:40.587Z,100221.66
2023-04-23T10:31:07.898Z,100221.78
2023-04-23T10:33:45.649Z,100221.66
2023-04-23T10:36:25.816Z,100233.22
2023-04-23T10:38:58.780Z,100233.09
2023-04-23T10:41:31.532Z,100227.03
2023-04-23T10:43:58.754Z,100223.34
2023-04-23T10:46:30.194Z,100235.91
2023-04-23T10:49:16.700Z,100227.03
2023-04-23T10:54:21.613Z,100237.47
2023-04-23T10:56:59.731Z,100228.69
2023-04-23T10:59:29.016Z,100234.78
2023-04-23T11:02:00.606Z,100243.56
2023-04-23T11:04:29.723Z,100238.31
2023-04-23T11:06:59.164Z,100235.78
2023-04-23T11:09:40.005Z,100229.53
2023-04-23T11:12:10.519Z,100236.47
2023-04-23T11:14:43.337Z,100240.00
2023-04-23T11:17:15.783Z,100230.13
2023-04-23T11:20:03.461Z,100230.13
2023-04-23T11:22:37.939Z,100233.78
2023-04-23T11:25:08.644Z,100233.66
2023-04-23T11:27:41.925Z,100228.13
2023-04-23T11:30:13.457Z,100226.16
2023-04-23T11:32:42.244Z,100226.72
2023-04-23T11:35:11.956Z,100219.69
2023-04-23T11:37:41.679Z,100228.56
2023-04-23T11:40:10.930Z,100222.91
2023-04-23T11:42:47.265Z,100213.88
2023-04-23T11:45:19.165Z,100215.84
2023-04-23T11:47:47.093Z,100217.69
2023-04-23T11:50:32.852Z,100218.50
2023-04-23T11:53:07.911Z,100221.63
2023-04-23T11:55:35.196Z,100220.63
2023-04-23T11:58:02.653Z,100211.63
2023-04-23T12:00:29.883Z,100211.63
2023-04-23T12:03:00.382Z,100215.69
2023-04-23T12:05:40.780Z,100219.50
2023-04-23T12:08:16.693Z,100221.19
2023-04-23T12:11:03.028Z,100230.66
2023-04-23T12:13:34.014Z,100231.78
2023-04-23T12:16:03.505Z,100233.47
2023-04-23T12:18:37.897Z,100232.50
2023-04-23T12:21:12.599Z,100234.19
2023-04-23T12:23:41.534Z,100232.50
2023-04-23T12:26:12.614Z,100228.09
2023-04-23T12:28:59.416Z,100221.78
2023-04-23T12:31:29.517Z,100220.06
2023-04-23T12:34:04.269Z,100216.25
2023-04-23T12:36:32.471Z,100217.09
2023-04-23T12:39:24.814Z,100211.88
2023-04-23T12:42:06.543Z,100207.34
2023-04-23T12:44:35.515Z,100205.50
2023-04-23T12:47:03.743Z,100207.19
2023-04-23T12:49:31.961Z,100208.06
2023-04-23T12:52:03.623Z,100209.75
2023-04-23T12:54:34.331Z,100202.53
2023-04-23T12:57:04.336Z,100202.38
2023-04-23T12:59:32.017Z,100204.09
2023-04-23T13:02:03.527Z,100202.38
2023-04-23T13:04:32.378Z,100204.94
2023-04-23T13:06:59.568Z,100209.16
2023-04-23T13:09:28.076Z,100200.13
2023-04-23T13:11:55.630Z,100199.13
2023-04-23T13:14:22.893Z,100198.19
2023-04-23T13:16:50.345Z,100190.81
2023-04-23T13:19:17.829Z,100196.03
2023-04-23T13:21:45.354Z,100185.44
2023-04-23T13:24:12.850Z,100175.41
2023-04-23T13:26:40.308Z,100184.31
2023-04-23T13:29:07.502Z,100182.31
2023-04-23T13:31:34.777Z,100180.47
2023-04-23T13:34:03.026Z,100174.13
2023-04-23T13:36:30.551Z,100174.94
2023-04-23T13:38:57.859Z,100180.19
2023-04-23T13:41:25.020Z,100164.09
2023-04-23T13:43:52.653Z,100162.25
2023-04-23T13:46:20.103Z,100162.41
2023-04-23T13:48:47.589Z,100163.06
2023-04-23T13:51:33.330Z,100157.72
2023-04-23T13:54:02.124Z,100161.41
2023-04-23T13:56:30.603Z,100156.03
2023-04-23T14:01:34.182Z,100151.50
2023-04-23T14:04:01.491Z,100141.59
2023-04-23T14:06:28.779Z,100135.41
2023-04-23T14:08:55.936Z,100148.81
2023-04-23T14:11:23.212Z,100137.94
2023-04-23T14:13:50.534Z,100134.38
2023-04-23T14:16:18.128Z,100137.94
2023-04-23T14:18:45.790Z,100132.25
2023-04-23T14:21:15.637Z,100132.25
2023-04-23T14:23:51.919Z,100121.22
2023-04-23T14:29:35.234Z,100124.06
2023-04-23T14:32:02.595Z,100123.22
2023-04-23T14:34:30.004Z,100118.69
2023-04-23T14:36:57.260Z,100119.53
2023-04-23T14:39:27.061Z,100107.94
2023-04-23T14:41:54.268Z,100115.84
2023-04-23T14:44:23.437Z,100111.34
2023-04-23T14:46:51.196Z,100100.59
2023-04-23T14:49:20.612Z,100098.75
2023-04-23T14:51:50.811Z,100098.75
2023-04-23T14:54:18.469Z,100094.22
2023-04-23T14:56:45.945Z,100087.00
2023-04-23T14:59:13.404Z,100087.00
2023-04-23T15:01:40.771Z,100076.28
2023-04-23T15:04:08.105Z,100077.13
2023-04-23T15:06:35.364Z,100075.28
2023-04-23T15:09:02.562Z,100075.28
2023-04-23T15:11:38.143Z,100069.75
2023-04-23T15:14:26.949Z,100070.59
2023-04-23T15:16:54.298Z,100070.59
2023-04-23T15:19:21.645Z,100075.97
2023-04-23T15:21:48.955Z,100067.78
2023-04-23T15:24:16.613Z,100066.78
2023-04-23T15:26:45.849Z,100064.78
2023-04-23T15:29:13.869Z,100053.91
2023-04-23T15:31:41.798Z,100054.91
2023-04-23T15:34:09.754Z,100059.25
2023-04-23T15:36:38.069Z,100059.25
2023-04-23T15:39:06.518Z,100064.63
2023-04-23T15:41:40.361Z,100064.63
2023-04-23T15:44:12.223Z,100059.25
2023-04-23T15:46:39.665Z,100057.28
2023-04-23T15:49:06.848Z,100052.75
2023-04-23T15:51:34.063Z,100061.66
2023-04-23T15:54:02.265Z,100048.22
2023-04-23T15:56:29.634Z,100050.75
2023-04-23T15:58:57.038Z,100050.19
2023-04-23T16:01:27.742Z,100051.22
2023-04-23T16:04:09.802Z,100046.84
2023-04-23T16:06:37.835Z,100029.03
2023-04-23T16:09:07.967Z,100043.28
2023-04-23T16:11:37.169Z,100027.19
2023-04-23T16:14:10.393Z,100035.09
2023-04-23T16:16:40.931Z,100027.88
2023-04-23T16:19:14.528Z,100028.72
2023-04-23T16:21:41.885Z,100022.38
2023-04-23T16:24:09.235Z,100022.22
2023-04-23T16:26:37.337Z,100016.84
2023-04-23T16:31:39.128Z,100013.31
2023-04-23T16:34:07.187Z,100010.63
2023-04-23T16:36:34.496Z,100006.41
2023-04-23T16:39:01.715Z,100011.94
2023-04-23T16:41:29.120Z,100006.56
2023-04-23T16:43:56.308Z,100013.75
2023-04-23T16:46:26.019Z,100008.53
2023-04-23T16:48:53.307Z,100004.19
2023-04-23T16:51:20.488Z,99997.09
2023-04-23T16:53:47.668Z,99995.41
2023-04-23T16:56:14.840Z,99989.03
2023-04-23T16:58:42.325Z,99997.09
2023-04-23T17:01:09.576Z,99990.88
2023-04-23T17:03:37.101Z,99995.41
2023-04-23T17:06:12.235Z,99994.59
2023-04-23T17:08:39.549Z,99993.75
2023-04-23T17:11:07.172Z,99994.72
2023-04-23T17:13:34.952Z,99991.06
2023-04-23T17:16:02.608Z,99986.66
2023-04-23T17:18:29.948Z,99991.06
2023-04-23T17:20:57.203Z,99979.63
2023-04-23T17:23:24.365Z,99980.63
2023-04-23T17:25:51.679Z,99977.09
2023-04-23T17:28:22.964Z,99979.63
2023-04-23T17:30:50.477Z,99972.56
2023-04-23T17:33:21.143Z,99973.41
2023-04-23T17:35:53.423Z,99971.72
2023-04-23T17:38:21.012Z,99966.34
2023-04-23T17:40:52.186Z,99960.13
2023-04-23T17:43:19.897Z,99957.44
2023-04-23T17:45:47.624Z,99955.63
2023-04-23T17:48:15.802Z,99961.28
2023-04-23T17:50:43.681Z,99965.66
2023-04-23T17:53:10.869Z,99955.75
2023-04-23T17:55:38.054Z,99962.97
2023-04-23T17:58:05.862Z,99959.44
2023-04-23T18:00:37.184Z,99955.75
2023-04-23T18:03:04.709Z,99959.44
2023-04-23T18:05:35.508Z,99957.75
2023-04-23T18:08:03.023Z,99967.63
2023-04-23T18:10:30.864Z,99973.84
2023-04-23T18:12:58.395Z,99959.28
2023-04-23T18:15:25.832Z,99964.81
2023-04-23T18:17:55.707Z,99967.34
2023-04-23T18:20:25.131Z,99971.16
2023-04-23T18:22:54.230Z,99970.31
2023-04-23T18:25:21.466Z,99972.16
2023-04-23T18:27:49.319Z,99972.34
2023-04-23T18:30:17.652Z,99976.88
2023-04-23T18:32:49.646Z,99983.22
2023-04-23T18:35:19.633Z,99976.16
2023-04-23T18:37:55.010Z,99994.13
2023-04-23T18:40:22.434Z,99981.66
2023-04-23T18:42:49.750Z,99975.47
2023-04-23T18:45:17.001Z,99973.78
2023-04-23T18:47:50.124Z,99976.59
2023-04-23T18:50:38.333Z,99975.75
2023-04-23T18:53:05.860Z,99983.97
2023-04-23T18:55:33.116Z,99976.75
2023-04-23T18:58:00.703Z,99979.44
2023-04-23T19:00:28.033Z,99981.28
2023-04-23T19:02:55.336Z,99975.22
2023-04-23T19:05:22.666Z,99986.78
2023-04-23T19:07:49.899Z,99985.13
2023-04-23T19:10:17.121Z,99989.66
2023-04-23T19:12:44.705Z,99987.94
2023-04-23T19:15:12.071Z,99985.38
2023-04-23T19:17:39.315Z,99974.66
2023-04-23T19:20:10.971Z,99973.94
2023-04-23T19:22:41.704Z,99962.53
2023-04-23T19:25:09.479Z,99962.53
2023-04-23T19:27:36.741Z,99962.66
2023-04-23T19:30:10.015Z,99962.66
2023-04-23T19:32:37.272Z,99973.41
2023-04-23T19:35:05.594Z,99961.00
2023-04-23T19:37:33.028Z,99955.78
2023-04-23T19:40:00.734Z,99953.09
2023-04-23T19:42:29.900Z,99949.72
2023-04-23T19:44:57.368Z,99947.03
2023-04-23T19:47:24.757Z,99955.09
2023-04-23T19:49:52.042Z,99951.69
2023-04-23T19:52:22.288Z,99950.84
2023-04-23T19:54:49.865Z,99954.69
2023-04-23T19:57:22.077Z,99953.72
2023-04-23T19:59:49.896Z,99952.84
2023-04-23T20:02:17.168Z,99955.53
2023-04-23T20:04:45.595Z,99949.31
2023-04-23T20:07:12.982Z,99943.94
2023-04-23T20:09:41.983Z,99944.94
2023-04-23T20:12:09.377Z,99943.09
2023-04-23T20:14:36.683Z,99940.59
2023-04-23T20:17:05.244Z,99945.25
2023-04-23T20:19:33.195Z,99944.41
2023-04-23T20:22:00.704Z,99938.22
2023-04-23T20:24:27.924Z,99943.56
2023-04-23T20:26:55.213Z,99938.22
2023-04-23T20:29:22.436Z,99931.00
2023-04-23T20:31:49.804Z,99929.31
2023-04-23T20:34:17.341Z,99923.09
2023-04-23T20:36:47.176Z,99925.75
2023-04-23T20:39:15.320Z,99921.56
2023-04-23T20:41:44.278Z,99915.34
2023-04-23T20:44:12.275Z,99920.69
2023-04-23T20:46:40.182Z,99904.91
2023-04-23T20:49:07.391Z,99903.94
2023-04-23T20:51:34.636Z,99893.19
2023-04-23T20:54:02.711Z,99895.88
2023-04-23T20:56:30.748Z,99881.47
2023-04-23T20:58:58.441Z,99883.44
2023-04-23T21:01:26.114Z,99880.91
2023-04-23T21:03:54.082Z,99875.38
2023-04-23T21:06:22.004Z,99875.72
2023-04-23T21:08:49.300Z,99872.03
2023-04-23T21:11:18.162Z,99869.34
2023-04-23T21:13:46.115Z,99857.91
2023-04-23T21:16:13.797Z,99859.75
2023-04-23T21:18:41.455Z,99857.78
2023-04-23T21:21:08.802Z,99852.41
2023-04-23T21:23:36.474Z,99853.38
2023-04-23T21:26:04.117Z,99853.09
2023-04-23T21:28:32.172Z,99851.25
2023-04-23T21:31:22.784Z,99847.88
2023-04-23T21:33:51.016Z,99840.50
2023-04-23T21:36:18.198Z,99837.91
2023-04-23T21:38:45.465Z,99838.53
2023-04-23T21:41:12.609Z,99834.38
2023-04-23T21:43:40.559Z,99834.06
2023-04-23T21:46:07.773Z,99841.19
2023-04-23T21:48:35.479Z,99835.66
2023-04-23T21:51:03.509Z,99831.94
2023-04-23T21:53:30.893Z,99831.94
2023-04-23T21:55:58.088Z,99833.34
2023-04-23T21:58:25.417Z,99844.09
2023-04-23T22:00:52.928Z,99837.16
2023-04-23T22:03:28.518Z,99843.38
2023-04-23T22:06:04.917Z,99858.16
2023-04-23T22:08:33.502Z,99853.94
2023-04-23T22:11:00.714Z,99849.19
2023-04-23T22:13:28.024Z,99846.91
2023-04-23T22:15:57.206Z,99849.31
2023-04-23T22:18:24.608Z,99848.72
2023-04-23T22:20:52.857Z,99841.53
2023-04-23T22:23:21.553Z,99841.19
2023-04-23T22:25:49.085Z,99848.34
2023-04-23T22:28:16.539Z,99844.50
2023-04-23T22:30:46.475Z,99838.09
2023-04-23T22:33:13.888Z,99840.34
2023-04-23T22:35:41.336Z,99837.19
2023-04-23T22:38:08.672Z,99839.28
2023-04-23T22:40:35.936Z,99825.88
2023-04-23T22:43:03.236Z,99817.28
2023-04-23T22:45:30.627Z,99822.81
2023-04-23T22:47:57.828Z,99813.47
2023-04-23T22:50:26.893Z,99810.84
2023-04-23T22:52:54.034Z,99809.94
2023-04-23T22:55:21.212Z,99802.41
2023-04-23T22:57:48.530Z,99795.38
2023-04-23T23:00:16.117Z,99789.31
2023-04-23T23:02:43.391Z,99781.75
2023-04-23T23:05:11.049Z,99775.38
2023-04-23T23:07:38.594Z,99773.69
2023-04-23T23:10:08.785Z,99779.59
2023-04-23T23:12:37.007Z,99778.06
2023-04-23T23:15:04.959Z,99776.91
2023-04-23T23:17:32.206Z,99769.56
2023-04-23T23:19:59.419Z,99774.41
2023-04-23T23:22:27.181Z,99768.72
2023-04-23T23:24:54.491Z,99765.34
2023-04-23T23:27:21.753Z,99759.97
2023-04-23T23:29:49.005Z,99755.31
2023-04-23T23:32:16.426Z,99748.94
2023-04-23T23:34:43.727Z,99747.25
2023-04-23T23:37:11.244Z,99739.06
2023-04-23T23:39:38.520Z,99726.34
2023-04-23T23:42:10.860Z,99739.22
2023-04-23T23:44:38.096Z,99728.19
2023-04-23T23:47:05.587Z,99725.31
2023-04-23T23:49:32.784Z,99723.66
2023-04-23T23:51:59.986Z,99722.13
2023-04-23T23:54:27.192Z,99733.53
2023-04-23T23:56:55.626Z,99718.94
2023-04-23T23:59:23.087Z,99720.78
